createdAt,value
2022-07-27T00:10:19.630Z,18.2
2022-07-27T00:24:46.002Z,18.1
2022-07-27T00:39:13.961Z,18
2022-07-27T00:53:40.962Z,18.2
2022-07-27T01:08:09.291Z,18
2022-07-27T01:22:36.989Z,17.8
2022-07-27T01:37:04.383Z,17.6
2022-07-27T01:51:31.661Z,17.4
2022-07-27T02:06:00.092Z,17.6
2022-07-27T02:20:27.782Z,17.5
2022-07-27T02:34:52.806Z,17
2022-07-27T02:49:20.975Z,17.1
2022-07-27T03:03:47.566Z,16.7
2022-07-27T03:18:16.461Z,16.8
2022-07-27T03:32:43.985Z,16.4
2022-07-27T03:47:12.168Z,16
2022-07-27T04:01:39.784Z,15.7
2022-07-27T04:16:06.955Z,15.6
2022-07-27T04:30:35.491Z,15.8
2022-07-27T04:45:03.994Z,15.7
2022-07-27T04:59:32.413Z,15.7
2022-07-27T05:14:00.647Z,15.6
2022-07-27T05:28:34.519Z,15.7
2022-07-27T05:43:12.162Z,15.6
2022-07-27T05:57:32.664Z,15.9
2022-07-27T06:12:01.025Z,16
2022-07-27T06:26:29.570Z,16
2022-07-27T06:40:58.431Z,16.4
2022-07-27T06:55:27.143Z,16.6
2022-07-27T07:09:55.799Z,17
2022-07-27T07:24:25.006Z,17.3
2022-07-27T07:39:02.380Z,21.6
2022-07-27T07:53:40.917Z,20.1
2022-07-27T08:07:57.899Z,18.8
2022-07-27T08:22:34.229Z,19.7
2022-07-27T08:37:15.318Z,23.6
2022-07-27T08:51:40.839Z,23
2022-07-27T09:06:08.510Z,21.6
2022-07-27T09:20:31.830Z,20.2
2022-07-27T09:34:57.671Z,20.6
2022-07-27T09:49:25.580Z,20
2022-07-27T10:03:56.771Z,22
2022-07-27T10:18:25.633Z,20.8
2022-07-27T10:32:51.848Z,21
2022-07-27T10:47:21.745Z,21.9
2022-07-27T11:01:52.212Z,21.6
2022-07-27T11:16:24.152Z,20.8
2022-07-27T11:30:47.408Z,21.3
2022-07-27T11:45:18.885Z,21.8
2022-07-27T11:59:42.768Z,21.2
2022-07-27T12:14:12.347Z,21.8
2022-07-27T12:28:41.613Z,23
2022-07-27T12:43:03.588Z,21.2
2022-07-27T12:57:54.377Z,23
2022-07-27T13:12:12.508Z,22.9
2022-07-27T13:26:37.355Z,22.9
2022-07-27T13:41:01.250Z,22.2
2022-07-27T13:55:34.225Z,21.5
2022-07-27T14:10:02.676Z,22.3
2022-07-27T14:24:29.144Z,23.1
2022-07-27T14:38:55.455Z,22.6
2022-07-27T14:53:22.052Z,22.8
2022-07-27T15:07:49.099Z,23.1
2022-07-27T15:22:16.518Z,22.7
2022-07-27T15:36:46.020Z,22.6
2022-07-27T15:51:14.225Z,22.7
2022-07-27T16:05:46.630Z,22
2022-07-27T16:20:16.369Z,22.4
2022-07-27T16:34:40.909Z,22.6
2022-07-27T16:49:09.099Z,23
2022-07-27T17:03:37.172Z,22.6
2022-07-27T17:18:02.006Z,21.5
2022-07-27T17:32:30.168Z,22.3
2022-07-27T17:47:00.910Z,22.2
2022-07-27T18:01:46.777Z,21.7
2022-07-27T18:16:03.571Z,21.6
2022-07-27T18:30:29.922Z,21.2
2022-07-27T18:44:56.440Z,20.9
2022-07-27T18:59:22.513Z,20.4
2022-07-27T19:13:49.044Z,19.9
2022-07-27T19:28:15.990Z,19.5
2022-07-27T19:42:43.143Z,19.2
2022-07-27T19:57:09.879Z,18.8
2022-07-27T20:11:37.236Z,18.4
2022-07-27T20:26:04.284Z,18.2
2022-07-27T20:40:31.844Z,17.8
2022-07-27T20:54:59.529Z,17.4
2022-07-27T21:09:28.616Z,17.3
2022-07-27T21:23:55.965Z,17
2022-07-27T21:38:23.893Z,16.8
2022-07-27T21:52:50.901Z,16.4
2022-07-27T22:07:19.236Z,16.4
2022-07-27T22:21:44.996Z,16.2
2022-07-27T22:36:12.618Z,16.2
2022-07-27T22:50:39.829Z,15.9
2022-07-27T23:05:06.748Z,15.9
2022-07-27T23:19:34.209Z,15.7
2022-07-27T23:34:01.799Z,15.7
2022-07-27T23:48:29.774Z,15.8
